Time;durP1;ratioP1;P1;durP2;ratioP2;P2;SDS_P1;SDS_P2;PMS_P1;PMS_P2;Temp;Humidity;BMP_temperature;BMP_pressure;BME280_temperature;BME280_humidity;BME280_pressure;Samples;Min_cycle;Max_cycle;Signal;HPM_P1;HPM_P2
2024/01/28 00:02:14;;;;;;;24.37;10.03;;;;;-0.50;102611.00;;;;12680042;23;20270;-80
2024/01/28 00:07:16;;;;;;;22.63;10.90;;;;;-0.60;102605.00;;;;12632361;23;20271;-80
2024/01/28 00:12:17;;;;;;;20.80;11.23;;;;;-0.60;102609.00;;;;12631928;23;20226;-79
2024/01/28 00:17:19;;;;;;;23.97;11.87;;;;;-0.60;102603.00;;;;12631859;23;20223;-79
2024/01/28 00:22:21;;;;;;;21.00;10.80;;;;;-0.60;102612.00;;;;12654335;23;20263;-79
2024/01/28 00:27:23;;;;;;;17.63;11.00;;;;;-0.60;102613.00;;;;12698457;23;20203;-86
2024/01/28 00:32:25;;;;;;;26.07;11.70;;;;;-0.60;102606.00;;;;12678633;23;20244;-87
2024/01/28 00:37:27;;;;;;;19.17;11.17;;;;;-0.70;102598.00;;;;12682168;23;20191;-91
2024/01/28 00:42:28;;;;;;;21.83;12.30;;;;;-0.80;102588.00;;;;12682329;23;20196;-88
2024/01/28 00:47:30;;;;;;;19.80;10.60;;;;;-0.80;102581.00;;;;12662648;23;20252;-87
2024/01/28 00:52:32;;;;;;;24.17;12.23;;;;;-0.90;102589.00;;;;12711558;23;20275;-88
2024/01/28 00:57:34;;;;;;;23.70;11.97;;;;;-0.90;102565.00;;;;12657674;23;20214;-87
2024/01/28 01:02:36;;;;;;;26.57;12.57;;;;;-0.80;102554.00;;;;12656442;23;21005;-87
2024/01/28 01:07:38;;;;;;;17.87;10.60;;;;;-0.80;102551.00;;;;12743926;23;20190;-86
2024/01/28 01:12:40;;;;;;;21.03;10.20;;;;;-0.90;102562.00;;;;12676064;23;20195;-87
2024/01/28 01:17:44;;;;;;;20.17;11.80;;;;;-0.90;102553.00;;;;12706717;23;20264;-86
2024/01/28 01:22:46;;;;;;;22.13;10.90;;;;;-1.00;102550.00;;;;12684354;23;20195;-83
2024/01/28 01:27:48;;;;;;;25.10;12.50;;;;;-1.10;102537.00;;;;12721337;23;20183;-84
2024/01/28 01:32:50;;;;;;;19.53;12.33;;;;;-1.20;102551.00;;;;12716315;23;20200;-89
2024/01/28 01:37:56;;;;;;;26.03;14.37;;;;;-1.30;102543.00;;;;12655716;23;20671;-78
2024/01/28 01:42:58;;;;;;;19.13;11.17;;;;;-1.20;102522.00;;;;12678778;23;20839;-78
2024/01/28 01:48:00;;;;;;;26.53;11.93;;;;;-1.00;102506.00;;;;12656021;23;20551;-78
2024/01/28 01:53:04;;;;;;;21.20;10.43;;;;;-0.80;102508.00;;;;12681552;23;20192;-79
2024/01/28 01:58:08;;;;;;;20.30;9.83;;;;;-0.60;102515.00;;;;12680070;23;20191;-79
2024/01/28 02:03:10;;;;;;;19.77;11.97;;;;;-0.50;102504.00;;;;12707303;22;20187;-81
2024/01/28 02:08:12;;;;;;;25.30;10.90;;;;;-0.60;102490.00;;;;12656394;23;20199;-82
2024/01/28 02:13:14;;;;;;;19.77;10.13;;;;;-0.70;102479.00;;;;12656084;23;20194;-81
2024/01/28 02:18:16;;;;;;;23.10;9.77;;;;;-0.60;102474.00;;;;12632891;23;20252;-81
2024/01/28 02:23:21;;;;;;;15.37;9.70;;;;;-0.50;102473.00;;;;12680058;23;20731;-81
2024/01/28 02:28:23;;;;;;;17.07;9.17;;;;;-0.50;102464.00;;;;12683500;23;20257;-81
2024/01/28 02:33:25;;;;;;;23.83;10.67;;;;;-0.60;102459.00;;;;12658853;23;20200;-81
2024/01/28 02:38:27;;;;;;;18.73;9.07;;;;;-0.60;102472.00;;;;12680242;23;20200;-81
2024/01/28 02:43:29;;;;;;;16.93;9.43;;;;;-0.70;102463.00;;;;12657798;23;20200;-82
2024/01/28 02:48:30;;;;;;;16.60;9.03;;;;;-0.80;102470.00;;;;12656171;23;20239;-81
2024/01/28 02:53:33;;;;;;;16.60;8.00;;;;;-0.90;102465.00;;;;12680114;23;20759;-81
2024/01/28 02:58:35;;;;;;;22.63;9.40;;;;;-0.90;102457.00;;;;12656783;23;20199;-81
2024/01/28 03:03:37;;;;;;;21.73;8.97;;;;;-0.90;102452.00;;;;12656536;23;20728;-80
2024/01/28 03:08:39;;;;;;;17.10;8.43;;;;;-1.00;102460.00;;;;12656691;23;20227;-80
2024/01/28 03:13:40;;;;;;;20.97;8.40;;;;;-1.00;102443.00;;;;12656700;23;20686;-80
2024/01/28 03:18:42;;;;;;;16.80;8.30;;;;;-1.10;102440.00;;;;12679188;23;20199;-78
2024/01/28 03:23:45;;;;;;;14.27;7.57;;;;;-1.10;102437.00;;;;12655806;23;20202;-79
2024/01/28 03:28:47;;;;;;;14.90;8.23;;;;;-1.10;102462.00;;;;12680354;23;20836;-79
2024/01/28 03:33:53;;;;;;;11.23;7.40;;;;;-1.20;102456.00;;;;12679721;23;20237;-78
2024/01/28 03:38:56;;;;;;;13.23;8.77;;;;;-1.10;102460.00;;;;12634989;23;20187;-79
2024/01/28 03:43:58;;;;;;;20.70;8.17;;;;;-1.20;102455.00;;;;12655200;23;20212;-80
2024/01/28 03:49:00;;;;;;;14.00;8.77;;;;;-1.30;102451.00;;;;12655722;23;20195;-79
2024/01/28 03:54:03;;;;;;;19.70;9.23;;;;;-1.30;102439.00;;;;12680995;23;20192;-79
2024/01/28 03:59:05;;;;;;;11.83;8.47;;;;;-1.30;102415.00;;;;12679426;23;20199;-79
2024/01/28 04:04:06;;;;;;;12.93;8.63;;;;;-1.40;102411.00;;;;12655898;23;20196;-80
2024/01/28 04:09:09;;;;;;;16.63;8.43;;;;;-1.40;102406.00;;;;12656046;23;20230;-80
2024/01/28 04:14:11;;;;;;;14.07;8.67;;;;;-1.30;102391.00;;;;12631176;23;20523;-82
2024/01/28 04:19:13;;;;;;;14.97;7.93;;;;;-1.20;102390.00;;;;12655987;23;20191;-81
2024/01/28 04:24:15;;;;;;;14.43;7.53;;;;;-1.10;102384.00;;;;12653730;23;20195;-81
2024/01/28 04:29:17;;;;;;;12.97;6.83;;;;;-0.90;102371.00;;;;12630410;23;20195;-81
2024/01/28 04:34:23;;;;;;;11.40;6.83;;;;;-0.80;102377.00;;;;12679544;23;20721;-82
2024/01/28 04:39:29;;;;;;;12.43;6.57;;;;;-0.80;102375.00;;;;12681357;23;20792;-81
2024/01/28 04:44:31;;;;;;;13.60;6.67;;;;;-0.80;102365.00;;;;12680046;23;20196;-81
2024/01/28 04:49:32;;;;;;;14.70;6.63;;;;;-0.90;102350.00;;;;12680068;23;20245;-81
2024/01/28 04:54:35;;;;;;;14.13;6.60;;;;;-0.90;102354.00;;;;12655757;23;20191;-81
2024/01/28 04:59:37;;;;;;;15.20;6.17;;;;;-0.90;102354.00;;;;12704363;23;20231;-81
2024/01/28 05:04:39;;;;;;;14.60;6.40;;;;;-0.80;102346.00;;;;12679806;23;20237;-82
2024/01/28 05:09:41;;;;;;;12.90;6.50;;;;;-0.70;102347.00;;;;12679739;23;20207;-81
2024/01/28 05:14:43;;;;;;;10.90;5.57;;;;;-0.70;102341.00;;;;12630988;23;20195;-81
2024/01/28 05:19:45;;;;;;;11.30;4.67;;;;;-0.70;102337.00;;;;12657030;23;20271;-81
2024/01/28 05:24:49;;;;;;;9.40;4.77;;;;;-0.80;102328.00;;;;12656993;23;20196;-81
2024/01/28 05:29:54;;;;;;;8.63;4.43;;;;;-1.00;102315.00;;;;12655145;23;20210;-81
2024/01/28 05:34:56;;;;;;;9.23;5.10;;;;;-1.00;102319.00;;;;12657514;23;20195;-81
2024/01/28 05:39:58;;;;;;;7.23;4.57;;;;;-1.00;102332.00;;;;12681213;23;20192;-81
2024/01/28 05:45:01;;;;;;;11.47;5.50;;;;;-1.00;102326.00;;;;12680583;23;20207;-81
2024/01/28 05:50:03;;;;;;;9.67;5.20;;;;;-1.10;102317.00;;;;12656935;23;20207;-81
2024/01/28 05:55:05;;;;;;;10.77;5.53;;;;;-1.20;102324.00;;;;12656870;23;20854;-82
2024/01/28 06:00:08;;;;;;;10.63;5.17;;;;;-1.30;102309.00;;;;12655873;23;20200;-81
2024/01/28 06:05:10;;;;;;;9.90;5.77;;;;;-1.40;102310.00;;;;12633914;23;20245;-81
2024/01/28 06:10:13;;;;;;;11.50;5.70;;;;;-1.50;102307.00;;;;12634241;23;20206;-81
2024/01/28 06:15:15;;;;;;;11.40;5.50;;;;;-1.50;102303.00;;;;12681163;23;20195;-81
2024/01/28 06:20:17;;;;;;;12.53;5.27;;;;;-1.60;102296.00;;;;12656776;23;20274;-82
2024/01/28 06:25:19;;;;;;;8.47;4.70;;;;;-1.60;102300.00;;;;12632577;23;20254;-81
2024/01/28 06:30:21;;;;;;;10.30;5.33;;;;;-1.40;102298.00;;;;12680148;23;20210;-81
2024/01/28 06:35:23;;;;;;;10.50;4.93;;;;;-1.20;102292.00;;;;12657251;23;20204;-78
2024/01/28 06:40:25;;;;;;;10.00;4.47;;;;;-1.00;102286.00;;;;12655861;23;20274;-79
2024/01/28 06:45:27;;;;;;;9.20;4.93;;;;;-0.90;102285.00;;;;12679667;23;20615;-78
2024/01/28 06:50:28;;;;;;;10.27;4.83;;;;;-1.00;102292.00;;;;12676043;23;20199;-80
2024/01/28 06:55:30;;;;;;;12.50;5.27;;;;;-1.20;102292.00;;;;12677557;23;20260;-77
2024/01/28 07:00:32;;;;;;;11.33;5.73;;;;;-1.30;102292.00;;;;12655775;23;20204;-79
2024/01/28 07:05:34;;;;;;;10.10;6.20;;;;;-1.40;102287.00;;;;12634888;23;20192;-80
2024/01/28 07:10:36;;;;;;;9.77;5.73;;;;;-1.50;102290.00;;;;12657138;23;20951;-77
2024/01/28 07:15:38;;;;;;;11.63;5.90;;;;;-1.50;102292.00;;;;12681787;23;20846;-77
2024/01/28 07:20:40;;;;;;;12.67;6.53;;;;;-1.60;102288.00;;;;12683479;23;20271;-78
2024/01/28 07:25:42;;;;;;;14.27;8.57;;;;;-1.60;102290.00;;;;12633023;23;20237;-77
2024/01/28 07:30:43;;;;;;;27.50;13.87;;;;;-1.60;102279.00;;;;12632678;23;20196;-78
2024/01/28 07:35:45;;;;;;;19.47;11.63;;;;;-1.60;102262.00;;;;12656665;23;20241;-76
2024/01/28 07:40:47;;;;;;;19.97;11.30;;;;;-1.60;102270.00;;;;12664505;23;20269;-77
2024/01/28 07:45:50;;;;;;;17.57;9.97;;;;;-1.60;102268.00;;;;12653393;23;20866;-78
2024/01/28 07:50:53;;;;;;;18.67;8.80;;;;;-1.50;102268.00;;;;12680376;23;20200;-79
2024/01/28 07:55:55;;;;;;;18.53;8.07;;;;;-1.40;102276.00;;;;12655955;23;20203;-78
2024/01/28 08:00:57;;;;;;;20.37;11.80;;;;;-1.30;102265.00;;;;12654627;23;20191;-79
2024/01/28 08:05:59;;;;;;;15.67;8.93;;;;;-1.20;102253.00;;;;12679530;23;20908;-78
2024/01/28 08:11:01;;;;;;;13.53;6.57;;;;;-1.00;102253.00;;;;12679003;23;20200;-78
2024/01/28 08:16:04;;;;;;;12.07;6.87;;;;;-0.80;102251.00;;;;12656550;23;20578;-78
2024/01/28 08:21:05;;;;;;;13.50;6.40;;;;;-0.60;102248.00;;;;12631024;23;20709;-77
2024/01/28 08:26:08;;;;;;;12.83;7.20;;;;;-0.30;102246.00;;;;12654949;23;20204;-78
2024/01/28 08:31:11;;;;;;;17.07;9.43;;;;;-0.10;102240.00;;;;12654161;23;20206;-77
2024/01/28 08:36:13;;;;;;;16.00;7.77;;;;;0.10;102233.00;;;;12655855;23;20192;-78
2024/01/28 08:41:15;;;;;;;14.37;6.77;;;;;0.30;102225.00;;;;12630470;23;20249;-79
2024/01/28 08:46:17;;;;;;;12.43;5.97;;;;;0.70;102232.00;;;;12679788;23;20215;-78
2024/01/28 08:51:19;;;;;;;13.47;6.13;;;;;1.10;102227.00;;;;12705085;23;20264;-78
2024/01/28 08:56:21;;;;;;;11.40;7.20;;;;;1.60;102234.00;;;;12632557;23;20943;-77
2024/01/28 09:01:23;;;;;;;14.47;6.60;;;;;2.00;102228.00;;;;12680510;23;20261;-78
2024/01/28 09:06:25;;;;;;;15.63;6.77;;;;;2.80;102236.00;;;;12632019;23;20906;-77
2024/01/28 09:11:27;;;;;;;8.27;4.80;;;;;3.20;102230.00;;;;12654568;23;20214;-78
2024/01/28 09:16:29;;;;;;;9.00;4.73;;;;;3.80;102238.00;;;;12630739;23;20257;-78
2024/01/28 09:21:31;;;;;;;9.67;4.00;;;;;4.30;102230.00;;;;12654151;23;20265;-77
2024/01/28 09:26:33;;;;;;;9.77;3.97;;;;;4.90;102233.00;;;;12654522;23;20195;-80
2024/01/28 09:31:35;;;;;;;4.87;3.37;;;;;5.40;102231.00;;;;12679247;23;20199;-78
2024/01/28 09:36:37;;;;;;;4.13;3.03;;;;;5.80;102231.00;;;;12629994;23;20196;-79
2024/01/28 09:42:10;;;;;;;4.87;2.90;;;;;5.70;102225.00;;;;12631158;23;20623;-78
2024/01/28 09:47:12;;;;;;;5.43;3.20;;;;;6.40;102228.00;;;;12655138;23;20208;-79
2024/01/28 09:52:16;;;;;;;7.63;3.40;;;;;6.80;102223.00;;;;12703888;23;20223;-79
2024/01/28 09:57:18;;;;;;;5.37;3.07;;;;;7.10;102230.00;;;;12629688;23;20207;-79
2024/01/28 10:02:20;;;;;;;5.77;3.00;;;;;7.50;102227.00;;;;12653896;23;20192;-79
2024/01/28 10:07:22;;;;;;;4.43;3.30;;;;;7.80;102225.00;;;;12681005;23;20203;-80
2024/01/28 10:12:25;;;;;;;6.37;2.80;;;;;8.00;102218.00;;;;12681195;23;20918;-79
2024/01/28 10:17:27;;;;;;;9.00;3.20;;;;;8.40;102217.00;;;;12627985;23;20204;-80
2024/01/28 10:22:30;;;;;;;5.40;2.97;;;;;8.70;102219.00;;;;12619663;23;20195;-79
2024/01/28 10:27:32;;;;;;;6.07;3.07;;;;;9.10;102214.00;;;;12628411;23;20762;-79
2024/01/28 10:32:34;;;;;;;5.20;2.97;;;;;9.20;102226.00;;;;12657105;23;20203;-79
2024/01/28 10:37:36;;;;;;;4.83;2.63;;;;;9.30;102224.00;;;;12658445;23;20195;-78
2024/01/28 10:42:40;;;;;;;6.80;3.27;;;;;9.50;102210.00;;;;12679446;23;20198;-79
2024/01/28 10:47:54;;;;;;;5.10;2.90;;;;;9.70;102210.00;;;;12657589;23;20210;-78
2024/01/28 10:52:56;;;;;;;5.37;3.33;;;;;9.70;102192.00;;;;12680726;23;20309;-80
2024/01/28 10:57:59;;;;;;;7.43;3.90;;;;;9.60;102189.00;;;;12657217;23;20214;-79
2024/01/28 11:03:02;;;;;;;6.97;3.40;;;;;10.00;102175.00;;;;12632646;23;20238;-79
2024/01/28 11:08:04;;;;;;;6.93;3.50;;;;;10.40;102171.00;;;;12656774;23;20699;-78
2024/01/28 11:13:06;;;;;;;7.00;3.80;;;;;10.70;102170.00;;;;12632558;23;20619;-80
2024/01/28 11:18:09;;;;;;;5.60;3.23;;;;;11.10;102167.00;;;;12677899;23;20838;-79
2024/01/28 11:23:16;;;;;;;6.70;2.80;;;;;11.40;102159.00;;;;12631991;23;20222;-78
2024/01/28 11:28:18;;;;;;;5.33;2.67;;;;;11.50;102145.00;;;;12632399;23;20199;-80
2024/01/28 11:33:20;;;;;;;5.13;2.50;;;;;11.40;102156.00;;;;12629617;23;20204;-79
2024/01/28 11:38:23;;;;;;;2.87;2.17;;;;;11.40;102143.00;;;;12652901;23;20780;-78
2024/01/28 11:43:26;;;;;;;3.67;2.20;;;;;11.50;102141.00;;;;12677810;23;20257;-77
2024/01/28 11:48:27;;;;;;;4.53;2.00;;;;;11.70;102131.00;;;;12653278;23;20196;-78
2024/01/28 11:53:30;;;;;;;4.67;1.90;;;;;11.90;102132.00;;;;12676855;23;20683;-77
2024/01/28 11:58:32;;;;;;;4.13;2.10;;;;;11.90;102125.00;;;;12652804;23;20745;-77
2024/01/28 12:03:33;;;;;;;3.23;1.90;;;;;12.00;102116.00;;;;12654904;23;20195;-78
2024/01/28 12:08:40;;;;;;;4.30;1.93;;;;;12.20;102121.00;;;;12657924;23;20246;-79
2024/01/28 12:13:43;;;;;;;2.28;1.70;;;;;12.30;102107.00;;;;12656335;23;20227;-79
2024/01/28 12:18:45;;;;;;;2.90;2.10;;;;;12.10;102107.00;;;;12630474;23;20211;-78
2024/01/28 12:23:59;;;;;;;3.38;2.20;;;;;12.30;102095.00;;;;12655782;23;20197;-82
2024/01/28 12:29:02;;;;;;;3.35;2.03;;;;;12.60;102089.00;;;;12654381;23;20252;-82
2024/01/28 12:34:13;;;;;;;3.65;2.30;;;;;12.90;102095.00;;;;12629916;23;20505;-82
2024/01/28 12:39:15;;;;;;;3.92;2.10;;;;;13.20;102089.00;;;;12656283;23;20192;-82
2024/01/28 12:44:17;;;;;;;3.95;2.10;;;;;13.00;102074.00;;;;12653744;23;20199;-82
2024/01/28 12:49:19;;;;;;;2.67;1.92;;;;;12.80;102064.00;;;;12654265;23;20222;-82
2024/01/28 12:54:21;;;;;;;4.07;2.25;;;;;12.90;102053.00;;;;12678342;23;20215;-82
2024/01/28 12:59:26;;;;;;;5.15;2.58;;;;;13.00;102037.00;;;;12654418;23;20260;-83
2024/01/28 13:04:28;;;;;;;4.93;2.45;;;;;13.00;102036.00;;;;12655251;23;20703;-83
2024/01/28 13:09:30;;;;;;;4.00;2.38;;;;;13.00;102033.00;;;;12655317;23;20199;-83
2024/01/28 13:14:32;;;;;;;2.78;2.08;;;;;12.70;102018.00;;;;12658442;23;20279;-83
2024/01/28 13:19:34;;;;;;;4.68;2.60;;;;;12.90;102022.00;;;;12654785;23;20615;-83
2024/01/28 13:24:38;;;;;;;4.85;2.22;;;;;13.30;102011.00;;;;12652550;23;20586;-83
2024/01/28 13:29:39;;;;;;;4.22;2.38;;;;;13.60;102011.00;;;;12653386;23;20218;-82
2024/01/28 13:34:41;;;;;;;3.92;1.95;;;;;13.60;101996.00;;;;12632077;23;20195;-85
2024/01/28 13:39:43;;;;;;;3.20;2.10;;;;;13.60;102007.00;;;;12637529;23;20274;-84
2024/01/28 13:44:46;;;;;;;3.17;2.20;;;;;13.40;101989.00;;;;12660385;23;20195;-85
2024/01/28 13:49:48;;;;;;;3.92;2.30;;;;;13.30;101985.00;;;;12661642;23;20508;-84
2024/01/28 13:54:50;;;;;;;4.78;2.13;;;;;13.40;101983.00;;;;12634980;23;20192;-82
2024/01/28 13:59:52;;;;;;;3.83;2.28;;;;;13.30;101983.00;;;;12709648;23;20222;-85
2024/01/28 14:04:53;;;;;;;3.80;1.95;;;;;13.30;101974.00;;;;12660829;23;20831;-86
2024/01/28 14:09:55;;;;;;;2.70;2.30;;;;;13.40;101977.00;;;;12659796;23;20191;-84
2024/01/28 14:14:57;;;;;;;11.40;2.70;;;;;13.60;101976.00;;;;12659444;23;20279;-86
2024/01/28 14:19:59;;;;;;;5.43;2.20;;;;;13.50;101972.00;;;;12657283;23;20203;-84
2024/01/28 14:25:02;;;;;;;4.25;2.65;;;;;13.30;101962.00;;;;12680715;23;20269;-86
2024/01/28 14:30:04;;;;;;;4.38;2.38;;;;;13.40;101961.00;;;;12655901;23;20207;-84
2024/01/28 14:35:06;;;;;;;5.30;2.83;;;;;13.70;101952.00;;;;12635764;23;20196;-85
2024/01/28 14:40:09;;;;;;;4.13;2.78;;;;;15.00;101931.00;;;;12707861;23;20206;-85
2024/01/28 14:45:13;;;;;;;4.85;3.05;;;;;15.30;101945.00;;;;12656066;23;20271;-80
2024/01/28 14:50:16;;;;;;;4.00;2.42;;;;;13.70;101945.00;;;;12681331;23;20531;-80
2024/01/28 14:55:19;;;;;;;2.88;2.25;;;;;13.10;101949.00;;;;12655150;23;20866;-79
2024/01/28 15:00:21;;;;;;;2.75;2.42;;;;;12.80;101937.00;;;;12655607;23;20257;-79
2024/01/28 15:05:23;;;;;;;5.35;2.70;;;;;12.60;101947.00;;;;12655596;23;20930;-79
2024/01/28 15:10:25;;;;;;;3.53;2.20;;;;;12.40;101940.00;;;;12632264;23;20567;-77
2024/01/28 15:15:27;;;;;;;3.08;2.30;;;;;12.20;101930.00;;;;12655328;23;20228;-79
2024/01/28 15:20:29;;;;;;;5.93;2.63;;;;;11.90;101930.00;;;;12704549;23;20207;-78
2024/01/28 15:25:31;;;;;;;5.47;2.60;;;;;11.70;101928.00;;;;12631629;23;20526;-78
2024/01/28 15:30:33;;;;;;;6.40;3.13;;;;;11.80;101926.00;;;;12652957;23;20282;-81
2024/01/28 15:35:35;;;;;;;4.40;2.67;;;;;11.60;101930.00;;;;12628193;23;20203;-77
2024/01/28 15:40:37;;;;;;;5.33;2.43;;;;;11.50;101931.00;;;;12650423;23;20233;-77
2024/01/28 15:45:39;;;;;;;5.22;2.97;;;;;11.20;101932.00;;;;12649707;23;20187;-78
2024/01/28 15:50:41;;;;;;;4.43;3.27;;;;;10.90;101937.00;;;;12650344;23;20191;-78
2024/01/28 15:55:43;;;;;;;6.90;3.33;;;;;10.40;101944.00;;;;12650702;23;20195;-79
2024/01/28 16:00:45;;;;;;;5.43;3.87;;;;;10.10;101924.00;;;;12648961;23;20194;-80
2024/01/28 16:05:47;;;;;;;6.83;3.20;;;;;9.90;101929.00;;;;12625737;23;20461;-80
2024/01/28 16:10:48;;;;;;;8.10;4.63;;;;;9.60;101934.00;;;;12626285;23;20203;-78
2024/01/28 16:15:51;;;;;;;5.07;3.30;;;;;9.20;101940.00;;;;12699356;23;20191;-81
2024/01/28 16:20:53;;;;;;;6.67;2.93;;;;;8.80;101929.00;;;;12668668;23;20318;-79
2024/01/28 16:25:56;;;;;;;5.83;3.40;;;;;8.40;101924.00;;;;12648403;23;20236;-79
2024/01/28 16:30:58;;;;;;;27.47;10.00;;;;;8.10;101929.00;;;;12626228;23;20207;-79
2024/01/28 16:36:01;;;;;;;24.67;10.03;;;;;8.10;101926.00;;;;12651123;23;20757;-80
2024/01/28 16:41:03;;;;;;;26.03;10.43;;;;;8.00;101927.00;;;;12650545;23;20211;-81
2024/01/28 16:46:05;;;;;;;21.13;9.00;;;;;8.00;101928.00;;;;12650323;23;20207;-79
2024/01/28 16:51:06;;;;;;;23.10;10.50;;;;;8.00;101927.00;;;;12649923;23;20515;-80
2024/01/28 16:56:10;;;;;;;25.73;12.37;;;;;8.10;101928.00;;;;12654635;23;20299;-79
2024/01/28 17:01:12;;;;;;;34.17;14.57;;;;;8.10;101920.00;;;;12629342;23;20195;-81
2024/01/28 17:06:14;;;;;;;51.23;18.37;;;;;8.00;101921.00;;;;12627506;23;20511;-79
2024/01/28 17:11:16;;;;;;;31.03;15.00;;;;;7.70;101925.00;;;;12650677;23;20202;-79
2024/01/28 17:16:19;;;;;;;33.50;14.77;;;;;7.80;101920.00;;;;12626881;23;20291;-78
2024/01/28 17:21:21;;;;;;;17.97;11.27;;;;;7.70;101918.00;;;;12701464;23;20195;-78
2024/01/28 17:26:22;;;;;;;11.03;6.87;;;;;7.70;101925.00;;;;12652285;23;20695;-78
2024/01/28 17:31:27;;;;;;;21.10;14.90;;;;;7.80;101941.00;;;;12672977;23;20261;-78
2024/01/28 17:36:32;;;;;;;13.37;9.73;;;;;7.60;101939.00;;;;12652620;23;20654;-77
2024/01/28 17:41:34;;;;;;;24.00;13.60;;;;;7.30;101934.00;;;;12653282;23;20195;-78
2024/01/28 17:46:36;;;;;;;9.57;6.13;;;;;7.10;101929.00;;;;12701603;23;20198;-77
2024/01/28 17:51:38;;;;;;;14.40;8.40;;;;;7.20;101930.00;;;;12703057;23;20857;-81
2024/01/28 17:56:40;;;;;;;20.07;10.07;;;;;7.20;101924.00;;;;12629687;23;20191;-77
2024/01/28 18:01:42;;;;;;;26.93;14.40;;;;;7.10;101921.00;;;;12652911;23;20226;-78
2024/01/28 18:06:44;;;;;;;25.20;13.00;;;;;7.00;101915.00;;;;12677923;23;20286;-78
2024/01/28 18:11:46;;;;;;;14.50;8.57;;;;;7.00;101914.00;;;;12678906;23;20286;-78
2024/01/28 18:16:48;;;;;;;16.83;8.63;;;;;7.10;101912.00;;;;12652576;23;20191;-80
2024/01/28 18:21:51;;;;;;;12.03;8.60;;;;;7.10;101905.00;;;;12677552;23;20247;-80
2024/01/28 18:26:53;;;;;;;8.57;5.87;;;;;7.00;101893.00;;;;12655081;23;20197;-85
2024/01/28 18:31:55;;;;;;;10.47;7.50;;;;;7.20;101888.00;;;;12654736;23;20671;-86
2024/01/28 18:36:58;;;;;;;13.13;9.33;;;;;7.20;101894.00;;;;12631105;23;20199;-85
2024/01/28 18:42:01;;;;;;;10.10;7.27;;;;;7.20;101900.00;;;;12654949;23;20203;-83
2024/01/28 18:47:03;;;;;;;14.57;8.87;;;;;7.20;101904.00;;;;12652165;23;20192;-87
2024/01/28 18:52:05;;;;;;;13.50;8.33;;;;;7.00;101904.00;;;;12627909;23;20282;-87
2024/01/28 18:57:07;;;;;;;11.57;7.30;;;;;6.90;101904.00;;;;12709849;23;20610;-83
2024/01/28 19:02:10;;;;;;;12.50;7.03;;;;;7.00;101910.00;;;;12653573;23;20191;-85
2024/01/28 19:07:12;;;;;;;8.47;5.90;;;;;6.90;101912.00;;;;12651922;23;20647;-86
2024/01/28 19:12:14;;;;;;;9.10;4.90;;;;;6.90;101911.00;;;;12648314;23;20195;-85
2024/01/28 19:17:17;;;;;;;7.70;5.10;;;;;7.00;101909.00;;;;12658370;23;20195;-87
2024/01/28 19:22:21;;;;;;;12.50;6.90;;;;;6.90;101915.00;;;;12659243;23;20195;-85
2024/01/28 19:27:26;;;;;;;8.90;6.37;;;;;6.70;101916.00;;;;12652115;23;21050;-86
2024/01/28 19:32:28;;;;;;;11.17;6.50;;;;;6.50;101916.00;;;;12675147;23;20238;-84
2024/01/28 19:37:30;;;;;;;8.60;5.77;;;;;6.40;101915.00;;;;12674804;23;20202;-83
2024/01/28 19:42:32;;;;;;;9.23;6.27;;;;;6.30;101919.00;;;;12700306;23;20203;-82
2024/01/28 19:47:34;;;;;;;11.53;6.77;;;;;6.10;101919.00;;;;12673355;23;20222;-82
2024/01/28 19:52:36;;;;;;;9.43;5.47;;;;;6.00;101918.00;;;;12650390;23;20200;-82
2024/01/28 19:57:38;;;;;;;8.83;6.67;;;;;5.90;101919.00;;;;12675708;23;20203;-83
2024/01/28 20:02:40;;;;;;;11.90;6.43;;;;;5.60;101926.00;;;;12651299;23;20210;-82
2024/01/28 20:07:42;;;;;;;21.60;11.13;;;;;5.40;101915.00;;;;12650461;23;20192;-82
2024/01/28 20:12:45;;;;;;;16.47;9.13;;;;;5.20;101917.00;;;;12650891;23;20252;-82
2024/01/28 20:17:47;;;;;;;11.93;7.43;;;;;5.00;101905.00;;;;12651255;23;20203;-83
2024/01/28 20:22:50;;;;;;;9.90;6.00;;;;;4.90;101910.00;;;;12651803;23;20201;-82
2024/01/28 20:27:52;;;;;;;9.33;6.10;;;;;4.90;101904.00;;;;12676632;23;20263;-82
2024/01/28 20:32:54;;;;;;;9.73;6.40;;;;;4.80;101904.00;;;;12653211;23;20196;-82
2024/01/28 20:37:56;;;;;;;8.33;5.77;;;;;4.70;101904.00;;;;12628921;23;20194;-81
2024/01/28 20:42:58;;;;;;;9.70;6.83;;;;;4.80;101909.00;;;;12654314;23;20207;-82
2024/01/28 20:48:01;;;;;;;9.70;6.67;;;;;4.70;101908.00;;;;12651000;23;20196;-78
2024/01/28 20:53:03;;;;;;;13.93;7.30;;;;;4.60;101900.00;;;;12702239;23;20207;-78
2024/01/28 20:58:07;;;;;;;11.27;6.40;;;;;4.60;101893.00;;;;12676564;23;20753;-77
2024/01/28 21:03:10;;;;;;;10.63;6.77;;;;;4.70;101891.00;;;;12651755;23;20760;-78
2024/01/28 21:08:18;;;;;;;10.00;6.20;;;;;4.90;101889.00;;;;12675396;23;20236;-80
2024/01/28 21:13:20;;;;;;;10.63;5.50;;;;;5.00;101893.00;;;;12627830;23;20207;-78
2024/01/28 21:18:22;;;;;;;10.67;5.60;;;;;5.20;101894.00;;;;12650532;23;20199;-79
2024/01/28 21:23:24;;;;;;;9.30;5.27;;;;;5.30;101896.00;;;;12649317;23;20203;-79
2024/01/28 21:28:26;;;;;;;6.40;4.33;;;;;5.50;101895.00;;;;12651485;23;20663;-78
2024/01/28 21:33:27;;;;;;;6.03;4.80;;;;;5.70;101892.00;;;;12650471;23;20203;-79
2024/01/28 21:38:30;;;;;;;7.50;4.67;;;;;6.00;101894.00;;;;12650854;23;20198;-80
2024/01/28 21:43:31;;;;;;;6.70;4.40;;;;;6.00;101896.00;;;;12652042;22;20590;-79
2024/01/28 21:48:33;;;;;;;8.97;4.97;;;;;6.20;101895.00;;;;12630644;23;20192;-79
2024/01/28 21:53:35;;;;;;;10.10;4.70;;;;;6.30;101897.00;;;;12652396;23;20219;-82
2024/01/28 21:58:37;;;;;;;9.00;5.13;;;;;6.40;101891.00;;;;12675590;23;20200;-82
2024/01/28 22:03:39;;;;;;;7.93;5.00;;;;;6.50;101894.00;;;;12677163;23;20203;-82
2024/01/28 22:08:41;;;;;;;8.33;5.07;;;;;6.40;101898.00;;;;12678322;23;20590;-83
2024/01/28 22:13:43;;;;;;;7.50;4.60;;;;;6.40;101902.00;;;;12702589;23;20810;-82
2024/01/28 22:18:45;;;;;;;8.33;5.50;;;;;6.40;101902.00;;;;12678284;23;20199;-82
2024/01/28 22:23:47;;;;;;;6.83;4.53;;;;;6.30;101897.00;;;;12651832;23;20206;-82
2024/01/28 22:28:49;;;;;;;7.30;4.20;;;;;6.30;101907.00;;;;12628529;23;20202;-82
2024/01/28 22:33:51;;;;;;;8.80;4.63;;;;;6.40;101912.00;;;;12676731;23;20199;-82
2024/01/28 22:38:53;;;;;;;7.67;4.43;;;;;6.30;101909.00;;;;12652258;23;20219;-82
2024/01/28 22:43:55;;;;;;;7.03;4.30;;;;;6.30;101903.00;;;;12651760;23;20274;-82
2024/01/28 22:48:57;;;;;;;6.50;4.57;;;;;6.40;101911.00;;;;12644897;23;20248;-82
2024/01/28 22:54:00;;;;;;;7.87;5.10;;;;;6.50;101903.00;;;;12640847;23;20219;-82
2024/01/28 22:59:04;;;;;;;9.87;5.17;;;;;6.70;101915.00;;;;12626598;23;20204;-82
2024/01/28 23:04:06;;;;;;;7.13;4.63;;;;;6.70;101905.00;;;;12652160;23;20608;-82
2024/01/28 23:09:08;;;;;;;8.47;4.63;;;;;6.70;101898.00;;;;12653955;23;20199;-82
2024/01/28 23:14:10;;;;;;;10.07;4.43;;;;;6.50;101906.00;;;;12651825;23;20227;-82
2024/01/28 23:19:12;;;;;;;11.03;5.47;;;;;6.50;101915.00;;;;12677380;23;20835;-83
2024/01/28 23:24:15;;;;;;;8.30;4.53;;;;;6.40;101909.00;;;;12651616;23;20207;-82
2024/01/28 23:29:18;;;;;;;10.17;5.33;;;;;6.30;101907.00;;;;12652328;23;20251;-83
2024/01/28 23:34:19;;;;;;;10.03;5.47;;;;;6.30;101907.00;;;;12628482;23;20311;-83
2024/01/28 23:39:21;;;;;;;9.03;5.40;;;;;6.20;101921.00;;;;12675406;23;20226;-82
2024/01/28 23:44:23;;;;;;;9.17;5.30;;;;;6.30;101906.00;;;;12777736;22;20203;-83
2024/01/28 23:49:25;;;;;;;12.57;6.10;;;;;6.30;101908.00;;;;12652389;23;20587;-83
2024/01/28 23:54:27;;;;;;;12.27;6.33;;;;;6.40;101902.00;;;;12652861;23;20700;-82
2024/01/28 23:59:29;;;;;;;9.30;5.07;;;;;6.50;101894.00;;;;12652344;22;20253;-82
